sensor_id;sensor_type;location;lat;lon;timestamp;P1;P2;P0
60245;PMS5003;46107;53.356;-1.524;2023-03-01T00:02:03;28;19;
60245;PMS5003;46107;53.356;-1.524;2023-03-01T00:04:30;24;21;
60245;PMS5003;46107;53.356;-1.524;2023-03-01T00:06:58;20;15;
60245;PMS5003;46107;53.356;-1.524;2023-03-01T00:09:26;27;20;
60245;PMS5003;46107;53.356;-1.524;2023-03-01T00:11:54;17;15;
60245;PMS5003;46107;53.356;-1.524;2023-03-01T00:14:22;19;19;
60245;PMS5003;46107;53.356;-1.524;2023-03-01T00:16:50;17;13;
60245;PMS5003;46107;53.356;-1.524;2023-03-01T00:19:18;13;13;
60245;PMS5003;46107;53.356;-1.524;2023-03-01T00:21:46;13;13;
60245;PMS5003;46107;53.356;-1.524;2023-03-01T00:24:14;17;13;
60245;PMS5003;46107;53.356;-1.524;2023-03-01T00:26:42;11;8;
60245;PMS5003;46107;53.356;-1.524;2023-03-01T00:29:10;11;11;
60245;PMS5003;46107;53.356;-1.524;2023-03-01T00:31:38;11;9;
60245;PMS5003;46107;53.356;-1.524;2023-03-01T00:34:06;16;14;
60245;PMS5003;46107;53.356;-1.524;2023-03-01T00:36:35;17;13;
60245;PMS5003;46107;53.356;-1.524;2023-03-01T00:39:03;17;13;
60245;PMS5003;46107;53.356;-1.524;2023-03-01T00:41:31;18;15;
60245;PMS5003;46107;53.356;-1.524;2023-03-01T00:43:59;14;14;
60245;PMS5003;46107;53.356;-1.524;2023-03-01T00:46:29;13;12;
60245;PMS5003;46107;53.356;-1.524;2023-03-01T00:48:57;16;13;
60245;PMS5003;46107;53.356;-1.524;2023-03-01T00:51:26;14;14;
60245;PMS5003;46107;53.356;-1.524;2023-03-01T00:53:55;13;12;
60245;PMS5003;46107;53.356;-1.524;2023-03-01T00:56:24;12;11;
60245;PMS5003;46107;53.356;-1.524;2023-03-01T00:58:52;10;8;
60245;PMS5003;46107;53.356;-1.524;2023-03-01T01:01:20;9;8;
60245;PMS5003;46107;53.356;-1.524;2023-03-01T01:03:50;11;9;
60245;PMS5003;46107;53.356;-1.524;2023-03-01T01:06:20;10;10;
60245;PMS5003;46107;53.356;-1.524;2023-03-01T01:08:50;9;9;
60245;PMS5003;46107;53.356;-1.524;2023-03-01T01:11:19;9;8;
60245;PMS5003;46107;53.356;-1.524;2023-03-01T01:13:47;15;11;
60245;PMS5003;46107;53.356;-1.524;2023-03-01T01:16:16;15;14;
60245;PMS5003;46107;53.356;-1.524;2023-03-01T01:18:45;16;12;
60245;PMS5003;46107;53.356;-1.524;2023-03-01T01:21:14;20;17;
60245;PMS5003;46107;53.356;-1.524;2023-03-01T01:23:44;20;15;
60245;PMS5003;46107;53.356;-1.524;2023-03-01T01:26:14;24;22;
60245;PMS5003;46107;53.356;-1.524;2023-03-01T01:28:44;24;17;
60245;PMS5003;46107;53.356;-1.524;2023-03-01T01:31:11;27;23;
60245;PMS5003;46107;53.356;-1.524;2023-03-01T01:33:39;18;16;
60245;PMS5003;46107;53.356;-1.524;2023-03-01T01:36:07;18;18;
60245;PMS5003;46107;53.356;-1.524;2023-03-01T01:38:35;16;15;
60245;PMS5003;46107;53.356;-1.524;2023-03-01T01:41:05;14;14;
60245;PMS5003;46107;53.356;-1.524;2023-03-01T01:43:33;13;13;
60245;PMS5003;46107;53.356;-1.524;2023-03-01T01:46:04;12;11;
60245;PMS5003;46107;53.356;-1.524;2023-03-01T01:48:40;12;12;
60245;PMS5003;46107;53.356;-1.524;2023-03-01T01:51:13;10;10;
60245;PMS5003;46107;53.356;-1.524;2023-03-01T01:53:44;16;11;
60245;PMS5003;46107;53.356;-1.524;2023-03-01T01:56:17;14;13;
60245;PMS5003;46107;53.356;-1.524;2023-03-01T01:58:47;9;9;
60245;PMS5003;46107;53.356;-1.524;2023-03-01T02:01:16;14;12;
60245;PMS5003;46107;53.356;-1.524;2023-03-01T02:03:44;12;10;
60245;PMS5003;46107;53.356;-1.524;2023-03-01T02:06:17;8;7;
60245;PMS5003;46107;53.356;-1.524;2023-03-01T02:08:48;12;10;
60245;PMS5003;46107;53.356;-1.524;2023-03-01T02:11:19;11;10;
60245;PMS5003;46107;53.356;-1.524;2023-03-01T02:13:47;10;6;
60245;PMS5003;46107;53.356;-1.524;2023-03-01T02:16:16;9;9;
60245;PMS5003;46107;53.356;-1.524;2023-03-01T02:18:44;13;10;
60245;PMS5003;46107;53.356;-1.524;2023-03-01T02:21:17;12;8;
60245;PMS5003;46107;53.356;-1.524;2023-03-01T02:23:57;10;8;
60245;PMS5003;46107;53.356;-1.524;2023-03-01T02:26:29;15;10;
60245;PMS5003;46107;53.356;-1.524;2023-03-01T02:29:04;15;15;
60245;PMS5003;46107;53.356;-1.524;2023-03-01T02:31:32;11;10;
60245;PMS5003;46107;53.356;-1.524;2023-03-01T02:34:00;16;12;
60245;PMS5003;46107;53.356;-1.524;2023-03-01T02:36:30;16;10;
60245;PMS5003;46107;53.356;-1.524;2023-03-01T02:39:02;15;13;
60245;PMS5003;46107;53.356;-1.524;2023-03-01T02:41:32;11;9;
60245;PMS5003;46107;53.356;-1.524;2023-03-01T02:44:03;13;11;
60245;PMS5003;46107;53.356;-1.524;2023-03-01T02:46:31;15;14;
60245;PMS5003;46107;53.356;-1.524;2023-03-01T02:48:58;13;11;
60245;PMS5003;46107;53.356;-1.524;2023-03-01T02:51:32;17;15;
60245;PMS5003;46107;53.356;-1.524;2023-03-01T02:54:12;16;12;
60245;PMS5003;46107;53.356;-1.524;2023-03-01T02:56:47;10;9;
60245;PMS5003;46107;53.356;-1.524;2023-03-01T02:59:16;8;8;
60245;PMS5003;46107;53.356;-1.524;2023-03-01T03:01:46;14;14;
60245;PMS5003;46107;53.356;-1.524;2023-03-01T03:04:15;14;11;
60245;PMS5003;46107;53.356;-1.524;2023-03-01T03:06:45;13;11;
60245;PMS5003;46107;53.356;-1.524;2023-03-01T03:09:14;14;11;
60245;PMS5003;46107;53.356;-1.524;2023-03-01T03:11:43;13;11;
60245;PMS5003;46107;53.356;-1.524;2023-03-01T03:14:11;19;18;
60245;PMS5003;46107;53.356;-1.524;2023-03-01T03:16:40;14;13;
60245;PMS5003;46107;53.356;-1.524;2023-03-01T03:19:09;15;11;
60245;PMS5003;46107;53.356;-1.524;2023-03-01T03:21:38;14;13;
60245;PMS5003;46107;53.356;-1.524;2023-03-01T03:24:05;13;11;
60245;PMS5003;46107;53.356;-1.524;2023-03-01T03:26:33;14;12;
60245;PMS5003;46107;53.356;-1.524;2023-03-01T03:29:06;14;13;
60245;PMS5003;46107;53.356;-1.524;2023-03-01T03:31:34;11;9;
60245;PMS5003;46107;53.356;-1.524;2023-03-01T03:34:01;15;13;
60245;PMS5003;46107;53.356;-1.524;2023-03-01T03:36:29;19;14;
60245;PMS5003;46107;53.356;-1.524;2023-03-01T03:38:57;17;14;
60245;PMS5003;46107;53.356;-1.524;2023-03-01T03:41:25;14;11;
60245;PMS5003;46107;53.356;-1.524;2023-03-01T03:43:52;14;14;
60245;PMS5003;46107;53.356;-1.524;2023-03-01T03:46:20;14;11;
60245;PMS5003;46107;53.356;-1.524;2023-03-01T03:48:47;14;12;
60245;PMS5003;46107;53.356;-1.524;2023-03-01T03:51:16;12;11;
60245;PMS5003;46107;53.356;-1.524;2023-03-01T03:53:45;9;9;
60245;PMS5003;46107;53.356;-1.524;2023-03-01T03:56:12;10;8;
60245;PMS5003;46107;53.356;-1.524;2023-03-01T03:58:39;13;9;
60245;PMS5003;46107;53.356;-1.524;2023-03-01T04:01:07;14;11;
60245;PMS5003;46107;53.356;-1.524;2023-03-01T04:03:35;9;9;
60245;PMS5003;46107;53.356;-1.524;2023-03-01T04:06:02;9;7;
60245;PMS5003;46107;53.356;-1.524;2023-03-01T04:08:31;12;8;
60245;PMS5003;46107;53.356;-1.524;2023-03-01T04:11:00;8;8;
60245;PMS5003;46107;53.356;-1.524;2023-03-01T04:13:29;8;6;
60245;PMS5003;46107;53.356;-1.524;2023-03-01T04:15:56;12;9;
60245;PMS5003;46107;53.356;-1.524;2023-03-01T04:18:24;9;8;
60245;PMS5003;46107;53.356;-1.524;2023-03-01T04:20:52;8;7;
60245;PMS5003;46107;53.356;-1.524;2023-03-01T04:23:20;15;11;
60245;PMS5003;46107;53.356;-1.524;2023-03-01T04:25:49;9;8;
60245;PMS5003;46107;53.356;-1.524;2023-03-01T04:28:19;11;10;
60245;PMS5003;46107;53.356;-1.524;2023-03-01T04:30:47;15;12;
60245;PMS5003;46107;53.356;-1.524;2023-03-01T04:33:15;14;13;
60245;PMS5003;46107;53.356;-1.524;2023-03-01T04:35:43;19;14;
60245;PMS5003;46107;53.356;-1.524;2023-03-01T04:38:11;14;12;
60245;PMS5003;46107;53.356;-1.524;2023-03-01T04:40:39;22;17;
60245;PMS5003;46107;53.356;-1.524;2023-03-01T04:43:06;15;13;
60245;PMS5003;46107;53.356;-1.524;2023-03-01T04:45:34;15;14;
60245;PMS5003;46107;53.356;-1.524;2023-03-01T04:48:02;16;16;
60245;PMS5003;46107;53.356;-1.524;2023-03-01T04:50:31;15;15;
60245;PMS5003;46107;53.356;-1.524;2023-03-01T04:52:58;17;15;
60245;PMS5003;46107;53.356;-1.524;2023-03-01T04:55:26;21;16;
60245;PMS5003;46107;53.356;-1.524;2023-03-01T04:57:54;18;13;
60245;PMS5003;46107;53.356;-1.524;2023-03-01T05:00:22;10;10;
60245;PMS5003;46107;53.356;-1.524;2023-03-01T05:02:51;18;12;
60245;PMS5003;46107;53.356;-1.524;2023-03-01T05:05:21;16;11;
60245;PMS5003;46107;53.356;-1.524;2023-03-01T05:07:52;20;17;
60245;PMS5003;46107;53.356;-1.524;2023-03-01T05:10:22;18;14;
60245;PMS5003;46107;53.356;-1.524;2023-03-01T05:12:50;10;10;
60245;PMS5003;46107;53.356;-1.524;2023-03-01T05:15:18;16;15;
60245;PMS5003;46107;53.356;-1.524;2023-03-01T05:17:46;19;17;
60245;PMS5003;46107;53.356;-1.524;2023-03-01T05:20:14;22;18;
60245;PMS5003;46107;53.356;-1.524;2023-03-01T05:22:41;14;12;
60245;PMS5003;46107;53.356;-1.524;2023-03-01T05:25:10;16;14;
60245;PMS5003;46107;53.356;-1.524;2023-03-01T05:27:37;13;12;
60245;PMS5003;46107;53.356;-1.524;2023-03-01T05:30:05;13;11;
60245;PMS5003;46107;53.356;-1.524;2023-03-01T05:32:36;8;6;
60245;PMS5003;46107;53.356;-1.524;2023-03-01T05:35:03;8;8;
60245;PMS5003;46107;53.356;-1.524;2023-03-01T05:37:31;10;10;
60245;PMS5003;46107;53.356;-1.524;2023-03-01T05:39:59;8;6;
60245;PMS5003;46107;53.356;-1.524;2023-03-01T05:42:27;9;9;
60245;PMS5003;46107;53.356;-1.524;2023-03-01T05:44:54;14;7;
60245;PMS5003;46107;53.356;-1.524;2023-03-01T05:47:22;9;7;
60245;PMS5003;46107;53.356;-1.524;2023-03-01T05:49:49;7;6;
60245;PMS5003;46107;53.356;-1.524;2023-03-01T05:52:17;4;4;
60245;PMS5003;46107;53.356;-1.524;2023-03-01T05:54:44;8;7;
60245;PMS5003;46107;53.356;-1.524;2023-03-01T05:57:12;9;8;
60245;PMS5003;46107;53.356;-1.524;2023-03-01T05:59:40;11;8;
60245;PMS5003;46107;53.356;-1.524;2023-03-01T06:02:08;10;7;
60245;PMS5003;46107;53.356;-1.524;2023-03-01T06:04:35;6;6;
60245;PMS5003;46107;53.356;-1.524;2023-03-01T06:07:03;9;9;
60245;PMS5003;46107;53.356;-1.524;2023-03-01T06:09:31;8;8;
60245;PMS5003;46107;53.356;-1.524;2023-03-01T06:11:59;8;6;
60245;PMS5003;46107;53.356;-1.524;2023-03-01T06:14:28;11;9;
60245;PMS5003;46107;53.356;-1.524;2023-03-01T06:16:56;9;8;
60245;PMS5003;46107;53.356;-1.524;2023-03-01T06:19:24;12;8;
60245;PMS5003;46107;53.356;-1.524;2023-03-01T06:21:51;9;6;
60245;PMS5003;46107;53.356;-1.524;2023-03-01T06:24:19;9;8;
60245;PMS5003;46107;53.356;-1.524;2023-03-01T06:26:46;8;6;
60245;PMS5003;46107;53.356;-1.524;2023-03-01T06:29:13;12;12;
60245;PMS5003;46107;53.356;-1.524;2023-03-01T06:31:41;11;10;
60245;PMS5003;46107;53.356;-1.524;2023-03-01T06:34:08;15;12;
60245;PMS5003;46107;53.356;-1.524;2023-03-01T06:36:36;14;10;
60245;PMS5003;46107;53.356;-1.524;2023-03-01T06:39:03;15;13;
60245;PMS5003;46107;53.356;-1.524;2023-03-01T06:41:31;14;12;
60245;PMS5003;46107;53.356;-1.524;2023-03-01T06:43:58;18;16;
60245;PMS5003;46107;53.356;-1.524;2023-03-01T06:46:26;15;11;
60245;PMS5003;46107;53.356;-1.524;2023-03-01T06:48:54;17;16;
60245;PMS5003;46107;53.356;-1.524;2023-03-01T06:51:22;15;12;
60245;PMS5003;46107;53.356;-1.524;2023-03-01T06:53:50;14;12;
60245;PMS5003;46107;53.356;-1.524;2023-03-01T06:56:17;13;10;
60245;PMS5003;46107;53.356;-1.524;2023-03-01T06:58:44;12;11;
60245;PMS5003;46107;53.356;-1.524;2023-03-01T07:01:12;11;9;
60245;PMS5003;46107;53.356;-1.524;2023-03-01T07:03:40;10;9;
60245;PMS5003;46107;53.356;-1.524;2023-03-01T07:06:07;13;11;
60245;PMS5003;46107;53.356;-1.524;2023-03-01T07:08:35;11;10;
60245;PMS5003;46107;53.356;-1.524;2023-03-01T07:11:04;15;12;
60245;PMS5003;46107;53.356;-1.524;2023-03-01T07:13:31;10;10;
60245;PMS5003;46107;53.356;-1.524;2023-03-01T07:15:59;20;17;
60245;PMS5003;46107;53.356;-1.524;2023-03-01T07:18:26;12;11;
60245;PMS5003;46107;53.356;-1.524;2023-03-01T07:20:55;17;13;
60245;PMS5003;46107;53.356;-1.524;2023-03-01T07:23:22;16;13;
60245;PMS5003;46107;53.356;-1.524;2023-03-01T07:25:51;17;14;
60245;PMS5003;46107;53.356;-1.524;2023-03-01T07:28:19;13;10;
60245;PMS5003;46107;53.356;-1.524;2023-03-01T07:30:49;14;13;
60245;PMS5003;46107;53.356;-1.524;2023-03-01T07:33:16;19;14;
60245;PMS5003;46107;53.356;-1.524;2023-03-01T07:35:44;14;13;
60245;PMS5003;46107;53.356;-1.524;2023-03-01T07:38:11;15;14;
60245;PMS5003;46107;53.356;-1.524;2023-03-01T07:40:39;16;12;
60245;PMS5003;46107;53.356;-1.524;2023-03-01T07:43:07;14;12;
60245;PMS5003;46107;53.356;-1.524;2023-03-01T07:45:34;15;14;
60245;PMS5003;46107;53.356;-1.524;2023-03-01T07:48:02;17;15;
60245;PMS5003;46107;53.356;-1.524;2023-03-01T07:50:30;16;14;
60245;PMS5003;46107;53.356;-1.524;2023-03-01T07:52:58;12;10;
60245;PMS5003;46107;53.356;-1.524;2023-03-01T07:55:26;11;9;
60245;PMS5003;46107;53.356;-1.524;2023-03-01T07:57:53;14;13;
60245;PMS5003;46107;53.356;-1.524;2023-03-01T08:00:21;12;10;
60245;PMS5003;46107;53.356;-1.524;2023-03-01T08:02:48;18;10;
60245;PMS5003;46107;53.356;-1.524;2023-03-01T08:05:16;12;12;
60245;PMS5003;46107;53.356;-1.524;2023-03-01T08:07:43;11;11;
60245;PMS5003;46107;53.356;-1.524;2023-03-01T08:10:11;13;11;
60245;PMS5003;46107;53.356;-1.524;2023-03-01T08:12:39;12;12;
60245;PMS5003;46107;53.356;-1.524;2023-03-01T08:15:07;14;13;
60245;PMS5003;46107;53.356;-1.524;2023-03-01T08:17:36;14;11;
60245;PMS5003;46107;53.356;-1.524;2023-03-01T08:20:03;11;8;
60245;PMS5003;46107;53.356;-1.524;2023-03-01T08:22:32;12;9;
60245;PMS5003;46107;53.356;-1.524;2023-03-01T08:24:59;13;9;
60245;PMS5003;46107;53.356;-1.524;2023-03-01T08:27:28;11;10;
60245;PMS5003;46107;53.356;-1.524;2023-03-01T08:29:56;12;10;
60245;PMS5003;46107;53.356;-1.524;2023-03-01T08:32:23;8;8;
60245;PMS5003;46107;53.356;-1.524;2023-03-01T08:34:51;12;12;
60245;PMS5003;46107;53.356;-1.524;2023-03-01T08:37:19;13;9;
60245;PMS5003;46107;53.356;-1.524;2023-03-01T08:39:47;8;6;
60245;PMS5003;46107;53.356;-1.524;2023-03-01T08:42:14;8;7;
60245;PMS5003;46107;53.356;-1.524;2023-03-01T08:44:42;6;5;
60245;PMS5003;46107;53.356;-1.524;2023-03-01T08:47:09;5;5;
60245;PMS5003;46107;53.356;-1.524;2023-03-01T08:49:36;5;5;
60245;PMS5003;46107;53.356;-1.524;2023-03-01T08:52:04;9;8;
60245;PMS5003;46107;53.356;-1.524;2023-03-01T08:54:31;4;4;
60245;PMS5003;46107;53.356;-1.524;2023-03-01T08:57:01;7;5;
60245;PMS5003;46107;53.356;-1.524;2023-03-01T08:59:29;7;4;
60245;PMS5003;46107;53.356;-1.524;2023-03-01T09:01:57;5;5;
60245;PMS5003;46107;53.356;-1.524;2023-03-01T09:04:24;9;8;
60245;PMS5003;46107;53.356;-1.524;2023-03-01T09:06:52;7;6;
60245;PMS5003;46107;53.356;-1.524;2023-03-01T09:09:20;12;10;
60245;PMS5003;46107;53.356;-1.524;2023-03-01T09:11:47;8;8;
60245;PMS5003;46107;53.356;-1.524;2023-03-01T09:14:15;6;6;
60245;PMS5003;46107;53.356;-1.524;2023-03-01T09:16:43;10;5;
60245;PMS5003;46107;53.356;-1.524;2023-03-01T09:19:11;7;7;
60245;PMS5003;46107;53.356;-1.524;2023-03-01T09:21:38;8;7;
60245;PMS5003;46107;53.356;-1.524;2023-03-01T09:24:06;5;5;
60245;PMS5003;46107;53.356;-1.524;2023-03-01T09:26:38;7;7;
60245;PMS5003;46107;53.356;-1.524;2023-03-01T09:29:06;5;5;
60245;PMS5003;46107;53.356;-1.524;2023-03-01T09:31:33;10;8;
60245;PMS5003;46107;53.356;-1.524;2023-03-01T09:34:06;7;5;
60245;PMS5003;46107;53.356;-1.524;2023-03-01T09:36:33;7;7;
60245;PMS5003;46107;53.356;-1.524;2023-03-01T09:39:06;6;6;
60245;PMS5003;46107;53.356;-1.524;2023-03-01T09:41:38;10;9;
60245;PMS5003;46107;53.356;-1.524;2023-03-01T09:44:16;7;7;
60245;PMS5003;46107;53.356;-1.524;2023-03-01T09:46:52;8;7;
60245;PMS5003;46107;53.356;-1.524;2023-03-01T09:49:21;7;6;
60245;PMS5003;46107;53.356;-1.524;2023-03-01T09:51:54;5;4;
60245;PMS5003;46107;53.356;-1.524;2023-03-01T09:54:25;8;6;
60245;PMS5003;46107;53.356;-1.524;2023-03-01T09:56:59;11;9;
60245;PMS5003;46107;53.356;-1.524;2023-03-01T09:59:36;10;9;
60245;PMS5003;46107;53.356;-1.524;2023-03-01T10:02:21;10;9;
60245;PMS5003;46107;53.356;-1.524;2023-03-01T10:04:56;8;7;
60245;PMS5003;46107;53.356;-1.524;2023-03-01T10:07:41;11;9;
60245;PMS5003;46107;53.356;-1.524;2023-03-01T10:10:27;10;10;
60245;PMS5003;46107;53.356;-1.524;2023-03-01T10:12:57;6;6;
60245;PMS5003;46107;53.356;-1.524;2023-03-01T10:15:33;10;8;
60245;PMS5003;46107;53.356;-1.524;2023-03-01T10:18:09;7;7;
60245;PMS5003;46107;53.356;-1.524;2023-03-01T10:20:44;7;7;
60245;PMS5003;46107;53.356;-1.524;2023-03-01T10:23:15;8;8;
60245;PMS5003;46107;53.356;-1.524;2023-03-01T10:25:46;8;6;
60245;PMS5003;46107;53.356;-1.524;2023-03-01T10:28:23;10;7;
60245;PMS5003;46107;53.356;-1.524;2023-03-01T10:30:55;9;7;
60245;PMS5003;46107;53.356;-1.524;2023-03-01T10:33:26;8;7;
60245;PMS5003;46107;53.356;-1.524;2023-03-01T10:35:57;8;8;
60245;PMS5003;46107;53.356;-1.524;2023-03-01T10:38:24;7;6;
60245;PMS5003;46107;53.356;-1.524;2023-03-01T10:40:53;7;6;
60245;PMS5003;46107;53.356;-1.524;2023-03-01T10:43:23;8;8;
60245;PMS5003;46107;53.356;-1.524;2023-03-01T10:45:52;9;6;
60245;PMS5003;46107;53.356;-1.524;2023-03-01T10:48:26;12;8;
60245;PMS5003;46107;53.356;-1.524;2023-03-01T10:51:04;9;7;
60245;PMS5003;46107;53.356;-1.524;2023-03-01T10:53:34;8;8;
60245;PMS5003;46107;53.356;-1.524;2023-03-01T10:56:04;8;6;
60245;PMS5003;46107;53.356;-1.524;2023-03-01T10:58:34;7;7;
60245;PMS5003;46107;53.356;-1.524;2023-03-01T11:01:04;7;7;
60245;PMS5003;46107;53.356;-1.524;2023-03-01T11:03:34;7;6;
60245;PMS5003;46107;53.356;-1.524;2023-03-01T11:06:05;5;5;
60245;PMS5003;46107;53.356;-1.524;2023-03-01T11:08:48;5;5;
60245;PMS5003;46107;53.356;-1.524;2023-03-01T11:11:21;6;6;
60245;PMS5003;46107;53.356;-1.524;2023-03-01T11:13:54;5;5;
60245;PMS5003;46107;53.356;-1.524;2023-03-01T11:16:27;6;6;
60245;PMS5003;46107;53.356;-1.524;2023-03-01T11:18:58;7;6;
60245;PMS5003;46107;53.356;-1.524;2023-03-01T11:21:32;5;5;
60245;PMS5003;46107;53.356;-1.524;2023-03-01T11:24:01;10;7;
60245;PMS5003;46107;53.356;-1.524;2023-03-01T11:26:33;7;7;
60245;PMS5003;46107;53.356;-1.524;2023-03-01T11:29:06;7;7;
60245;PMS5003;46107;53.356;-1.524;2023-03-01T11:31:43;10;8;
60245;PMS5003;46107;53.356;-1.524;2023-03-01T11:34:14;5;5;
60245;PMS5003;46107;53.356;-1.524;2023-03-01T11:36:51;4;4;
60245;PMS5003;46107;53.356;-1.524;2023-03-01T11:39:26;6;5;
60245;PMS5003;46107;53.356;-1.524;2023-03-01T11:42:01;5;4;
60245;PMS5003;46107;53.356;-1.524;2023-03-01T11:44:33;2;2;
60245;PMS5003;46107;53.356;-1.524;2023-03-01T11:47:07;4;4;
60245;PMS5003;46107;53.356;-1.524;2023-03-01T11:49:51;6;6;
60245;PMS5003;46107;53.356;-1.524;2023-03-01T11:52:31;7;6;
60245;PMS5003;46107;53.356;-1.524;2023-03-01T11:55:16;6;6;
60245;PMS5003;46107;53.356;-1.524;2023-03-01T11:58:00;5;5;
60245;PMS5003;46107;53.356;-1.524;2023-03-01T12:00:44;6;4;
60245;PMS5003;46107;53.356;-1.524;2023-03-01T12:03:28;8;8;
60245;PMS5003;46107;53.356;-1.524;2023-03-01T12:06:03;3;3;
60245;PMS5003;46107;53.356;-1.524;2023-03-01T12:08:45;6;5;
60245;PMS5003;46107;53.356;-1.524;2023-03-01T12:11:23;4;4;
60245;PMS5003;46107;53.356;-1.524;2023-03-01T12:14:06;4;4;
60245;PMS5003;46107;53.356;-1.524;2023-03-01T12:16:50;4;2;
60245;PMS5003;46107;53.356;-1.524;2023-03-01T12:19:33;3;3;
60245;PMS5003;46107;53.356;-1.524;2023-03-01T12:22:11;3;2;
60245;PMS5003;46107;53.356;-1.524;2023-03-01T12:24:51;2;2;
60245;PMS5003;46107;53.356;-1.524;2023-03-01T12:27:38;3;2;
60245;PMS5003;46107;53.356;-1.524;2023-03-01T12:30:26;3;3;
60245;PMS5003;46107;53.356;-1.524;2023-03-01T12:33:09;3;3;
60245;PMS5003;46107;53.356;-1.524;2023-03-01T12:35:48;4;3;
60245;PMS5003;46107;53.356;-1.524;2023-03-01T12:38:37;2;2;
60245;PMS5003;46107;53.356;-1.524;2023-03-01T12:41:12;2;2;
60245;PMS5003;46107;53.356;-1.524;2023-03-01T12:51:44;0;0;
60245;PMS5003;46107;53.356;-1.524;2023-03-01T12:54:19;1;1;
60245;PMS5003;46107;53.356;-1.524;2023-03-01T12:56:51;5;2;
60245;PMS5003;46107;53.356;-1.524;2023-03-01T12:59:21;3;1;
60245;PMS5003;46107;53.356;-1.524;2023-03-01T13:01:56;1;1;
60245;PMS5003;46107;53.356;-1.524;2023-03-01T13:04:38;2;2;
60245;PMS5003;46107;53.356;-1.524;2023-03-01T13:07:21;2;2;
60245;PMS5003;46107;53.356;-1.524;2023-03-01T13:09:58;4;4;
60245;PMS5003;46107;53.356;-1.524;2023-03-01T13:12:42;3;3;
60245;PMS5003;46107;53.356;-1.524;2023-03-01T13:15:29;6;5;
60245;PMS5003;46107;53.356;-1.524;2023-03-01T13:20:12;5;4;
60245;PMS5003;46107;53.356;-1.524;2023-03-01T13:22:43;5;4;
60245;PMS5003;46107;53.356;-1.524;2023-03-01T13:25:15;5;4;
60245;PMS5003;46107;53.356;-1.524;2023-03-01T13:27:46;5;5;
60245;PMS5003;46107;53.356;-1.524;2023-03-01T13:30:47;7;4;
60245;PMS5003;46107;53.356;-1.524;2023-03-01T13:33:33;12;4;
60245;PMS5003;46107;53.356;-1.524;2023-03-01T13:36:08;4;4;
60245;PMS5003;46107;53.356;-1.524;2023-03-01T13:38:37;6;4;
60245;PMS5003;46107;53.356;-1.524;2023-03-01T13:41:16;5;3;
60245;PMS5003;46107;53.356;-1.524;2023-03-01T13:44:17;4;2;
60245;PMS5003;46107;53.356;-1.524;2023-03-01T13:46:51;4;2;
60245;PMS5003;46107;53.356;-1.524;2023-03-01T13:49:41;5;5;
60245;PMS5003;46107;53.356;-1.524;2023-03-01T13:52:45;4;4;
60245;PMS5003;46107;53.356;-1.524;2023-03-01T13:55:18;2;2;
60245;PMS5003;46107;53.356;-1.524;2023-03-01T13:57:51;3;2;
60245;PMS5003;46107;53.356;-1.524;2023-03-01T14:00:31;3;2;
60245;PMS5003;46107;53.356;-1.524;2023-03-01T14:03:03;2;2;
60245;PMS5003;46107;53.356;-1.524;2023-03-01T14:05:35;3;3;
60245;PMS5003;46107;53.356;-1.524;2023-03-01T14:08:03;3;3;
60245;PMS5003;46107;53.356;-1.524;2023-03-01T14:10:41;2;2;
60245;PMS5003;46107;53.356;-1.524;2023-03-01T14:13:22;3;3;
60245;PMS5003;46107;53.356;-1.524;2023-03-01T14:16:06;2;1;
60245;PMS5003;46107;53.356;-1.524;2023-03-01T14:18:48;3;3;
60245;PMS5003;46107;53.356;-1.524;2023-03-01T14:21:25;4;2;
60245;PMS5003;46107;53.356;-1.524;2023-03-01T14:23:53;5;2;
60245;PMS5003;46107;53.356;-1.524;2023-03-01T14:26:21;4;3;
60245;PMS5003;46107;53.356;-1.524;2023-03-01T14:28:49;6;4;
60245;PMS5003;46107;53.356;-1.524;2023-03-01T14:31:36;2;1;
60245;PMS5003;46107;53.356;-1.524;2023-03-01T14:34:04;3;3;
60245;PMS5003;46107;53.356;-1.524;2023-03-01T14:36:33;3;3;
60245;PMS5003;46107;53.356;-1.524;2023-03-01T14:39:01;4;4;
60245;PMS5003;46107;53.356;-1.524;2023-03-01T14:41:42;6;4;
60245;PMS5003;46107;53.356;-1.524;2023-03-01T14:44:12;7;7;
60245;PMS5003;46107;53.356;-1.524;2023-03-01T14:46:43;9;8;
60245;PMS5003;46107;53.356;-1.524;2023-03-01T14:49:12;7;5;
60245;PMS5003;46107;53.356;-1.524;2023-03-01T14:51:46;8;6;
60245;PMS5003;46107;53.356;-1.524;2023-03-01T14:54:20;6;4;
60245;PMS5003;46107;53.356;-1.524;2023-03-01T14:56:50;4;4;
60245;PMS5003;46107;53.356;-1.524;2023-03-01T14:59:19;7;4;
60245;PMS5003;46107;53.356;-1.524;2023-03-01T15:01:50;4;3;
60245;PMS5003;46107;53.356;-1.524;2023-03-01T15:04:19;3;3;
60245;PMS5003;46107;53.356;-1.524;2023-03-01T15:06:48;1;1;
60245;PMS5003;46107;53.356;-1.524;2023-03-01T15:09:18;5;3;
60245;PMS5003;46107;53.356;-1.524;2023-03-01T15:11:47;2;2;
60245;PMS5003;46107;53.356;-1.524;2023-03-01T15:14:39;4;3;
60245;PMS5003;46107;53.356;-1.524;2023-03-01T15:17:26;3;2;
60245;PMS5003;46107;53.356;-1.524;2023-03-01T15:19:57;9;4;
60245;PMS5003;46107;53.356;-1.524;2023-03-01T15:22:26;3;3;
60245;PMS5003;46107;53.356;-1.524;2023-03-01T15:24:54;4;1;
60245;PMS5003;46107;53.356;-1.524;2023-03-01T15:27:23;3;3;
60245;PMS5003;46107;53.356;-1.524;2023-03-01T15:29:53;3;3;
60245;PMS5003;46107;53.356;-1.524;2023-03-01T15:32:25;4;4;
60245;PMS5003;46107;53.356;-1.524;2023-03-01T15:34:54;4;4;
60245;PMS5003;46107;53.356;-1.524;2023-03-01T15:37:55;4;4;
60245;PMS5003;46107;53.356;-1.524;2023-03-01T15:40:23;2;2;
60245;PMS5003;46107;53.356;-1.524;2023-03-01T15:42:51;4;4;
60245;PMS5003;46107;53.356;-1.524;2023-03-01T15:45:23;5;4;
60245;PMS5003;46107;53.356;-1.524;2023-03-01T15:47:53;4;4;
60245;PMS5003;46107;53.356;-1.524;2023-03-01T15:50:24;2;2;
60245;PMS5003;46107;53.356;-1.524;2023-03-01T15:52:54;3;2;
60245;PMS5003;46107;53.356;-1.524;2023-03-01T15:55:23;2;2;
60245;PMS5003;46107;53.356;-1.524;2023-03-01T15:57:57;3;3;
60245;PMS5003;46107;53.356;-1.524;2023-03-01T16:00:26;3;3;
60245;PMS5003;46107;53.356;-1.524;2023-03-01T16:02:55;3;2;
60245;PMS5003;46107;53.356;-1.524;2023-03-01T16:05:24;3;2;
60245;PMS5003;46107;53.356;-1.524;2023-03-01T16:07:54;4;4;
60245;PMS5003;46107;53.356;-1.524;2023-03-01T16:10:22;2;2;
60245;PMS5003;46107;53.356;-1.524;2023-03-01T16:12:50;2;2;
60245;PMS5003;46107;53.356;-1.524;2023-03-01T16:15:18;3;2;
60245;PMS5003;46107;53.356;-1.524;2023-03-01T16:17:47;2;2;
60245;PMS5003;46107;53.356;-1.524;2023-03-01T16:20:15;2;2;
60245;PMS5003;46107;53.356;-1.524;2023-03-01T16:22:43;4;2;
60245;PMS5003;46107;53.356;-1.524;2023-03-01T16:25:11;3;3;
60245;PMS5003;46107;53.356;-1.524;2023-03-01T16:27:41;3;3;
60245;PMS5003;46107;53.356;-1.524;2023-03-01T16:30:10;4;2;
60245;PMS5003;46107;53.356;-1.524;2023-03-01T16:32:40;2;2;
60245;PMS5003;46107;53.356;-1.524;2023-03-01T16:35:10;3;1;
60245;PMS5003;46107;53.356;-1.524;2023-03-01T16:37:39;2;2;
60245;PMS5003;46107;53.356;-1.524;2023-03-01T16:40:14;3;3;
60245;PMS5003;46107;53.356;-1.524;2023-03-01T16:42:44;3;2;
60245;PMS5003;46107;53.356;-1.524;2023-03-01T16:45:11;1;1;
60245;PMS5003;46107;53.356;-1.524;2023-03-01T16:47:38;0;0;
60245;PMS5003;46107;53.356;-1.524;2023-03-01T16:50:07;1;1;
60245;PMS5003;46107;53.356;-1.524;2023-03-01T16:52:36;9;4;
60245;PMS5003;46107;53.356;-1.524;2023-03-01T16:55:05;2;2;